createdAt,value
2018-09-16T00:00:00.670Z,12.80
2018-09-16T00:01:00.651Z,12.50
2018-09-16T00:02:00.645Z,16.10
2018-09-16T00:03:00.617Z,12.30
2018-09-16T00:04:00.599Z,13.80
2018-09-16T00:05:00.684Z,12.20
2018-09-16T00:06:00.565Z,15.70
2018-09-16T00:07:00.548Z,12.20
2018-09-16T00:08:00.546Z,12.80
2018-09-16T00:09:00.524Z,15.90
2018-09-16T00:10:00.497Z,17.30
2018-09-16T00:11:00.480Z,16.70
2018-09-16T00:12:00.460Z,14.30
2018-09-16T00:13:00.445Z,14.50
2018-09-16T00:14:00.425Z,16.10
2018-09-16T00:15:00.416Z,14.20
2018-09-16T00:16:00.430Z,15.30
2018-09-16T00:17:00.374Z,15.40
2018-09-16T00:18:00.356Z,15.60
2018-09-16T00:19:00.354Z,14.20
2018-09-16T00:20:00.323Z,11.10
2018-09-16T00:21:00.308Z,14.20
2018-09-16T00:22:00.298Z,15.20
2018-09-16T00:23:00.272Z,14.20
2018-09-16T00:24:00.261Z,15.40
2018-09-16T00:25:00.235Z,16.90
2018-09-16T00:26:00.215Z,17.50
2018-09-16T00:27:00.272Z,15.30
2018-09-16T00:28:00.190Z,15.40
2018-09-16T00:29:00.166Z,15.20
2018-09-16T00:30:00.149Z,12.50
2018-09-16T00:31:00.129Z,14.70
2018-09-16T00:32:00.113Z,15.60
2018-09-16T00:33:00.094Z,14.80
2018-09-16T00:34:00.089Z,17.50
2018-09-16T00:35:00.059Z,13.70
2018-09-16T00:36:00.052Z,12.20
2018-09-16T00:37:00.026Z,16.40
2018-09-16T00:38:00.105Z,12.70
2018-09-16T00:38:59.987Z,14.20
2018-09-16T00:39:59.973Z,15.60
2018-09-16T00:40:59.963Z,16.90
2018-09-16T00:41:59.936Z,13.50
2018-09-16T00:42:59.919Z,16.50
2018-09-16T00:43:59.908Z,18.70
2018-09-16T00:44:59.890Z,17.70
2018-09-16T00:45:59.865Z,17.90
2018-09-16T00:46:59.848Z,22.80
2018-09-16T00:47:59.839Z,13.80
2018-09-16T00:48:59.816Z,14.10
2018-09-16T00:49:59.799Z,15.60
2018-09-16T00:50:59.790Z,16.70
2018-09-16T00:51:59.763Z,11.60
2018-09-16T00:52:59.746Z,14.60
2018-09-16T00:53:59.768Z,15.30
2018-09-16T00:54:59.712Z,16.10
2018-09-16T00:55:59.693Z,16.80
2018-09-16T00:56:59.778Z,18.50
2018-09-16T00:57:59.657Z,15.50
2018-09-16T00:58:59.645Z,16.90
2018-09-16T00:59:59.620Z,17.30
2018-09-16T01:00:59.603Z,19.60
2018-09-16T01:01:59.593Z,19.60
2018-09-16T01:02:59.583Z,17.50
2018-09-16T01:03:59.549Z,20.60
2018-09-16T01:04:59.535Z,17.50
2018-09-16T01:05:59.514Z,14.70
2018-09-16T01:06:59.496Z,19.20
2018-09-16T01:07:59.478Z,16.00
2018-09-16T01:08:59.471Z,20.50
2018-09-16T01:09:59.449Z,21.10
2018-09-16T01:10:59.425Z,18.70
2018-09-16T01:11:59.411Z,20.00
2018-09-16T01:12:59.393Z,22.10
2018-09-16T01:13:59.377Z,17.90
2018-09-16T01:14:59.366Z,22.50
2018-09-16T01:15:59.339Z,20.20
2018-09-16T01:16:59.321Z,17.50
2018-09-16T01:17:59.303Z,29.70
2018-09-16T01:18:59.288Z,20.00
2018-09-16T01:19:59.270Z,19.60
2018-09-16T01:20:59.255Z,21.30
2018-09-16T01:21:59.232Z,21.50
2018-09-16T01:22:59.214Z,23.80
2018-09-16T01:23:59.198Z,21.30
2018-09-16T01:24:59.181Z,21.90
2018-09-16T01:25:59.163Z,27.40
2018-09-16T01:26:59.141Z,22.70
2018-09-16T01:27:59.128Z,20.10
2018-09-16T01:28:59.109Z,19.10
2018-09-16T01:29:59.090Z,25.20
2018-09-16T01:30:59.073Z,23.40
2018-09-16T01:31:59.058Z,23.00
2018-09-16T01:32:59.038Z,23.00
2018-09-16T01:33:59.021Z,21.30
2018-09-16T01:34:59.005Z,21.60
2018-09-16T01:35:58.984Z,19.90
2018-09-16T01:36:58.985Z,24.20
2018-09-16T01:37:58.955Z,21.80
2018-09-16T01:38:58.934Z,21.70
2018-09-16T01:39:59.072Z,19.10
2018-09-16T01:40:58.893Z,25.60
2018-09-16T01:41:58.874Z,17.50
2018-09-16T01:42:58.858Z,18.70
2018-09-16T01:43:58.839Z,19.90
2018-09-16T01:44:58.829Z,18.70
2018-09-16T01:45:58.806Z,22.90
2018-09-16T01:46:58.790Z,17.10
2018-09-16T01:47:58.771Z,20.40
2018-09-16T01:48:58.751Z,18.00
2018-09-16T01:49:58.739Z,19.10
2018-09-16T01:50:58.716Z,20.90
2018-09-16T01:51:58.701Z,19.80
2018-09-16T01:52:58.677Z,16.70
2018-09-16T01:53:58.659Z,18.00
2018-09-16T01:54:58.647Z,17.10
2018-09-16T01:55:58.623Z,18.20
2018-09-16T01:56:58.615Z,19.40
2018-09-16T01:57:58.587Z,19.00
2018-09-16T01:58:58.625Z,21.80
2018-09-16T01:59:58.554Z,16.50
2018-09-16T02:00:58.537Z,18.30
2018-09-16T02:01:58.514Z,21.00
2018-09-16T02:02:58.497Z,21.00
2018-09-16T02:03:58.492Z,20.90
2018-09-16T02:04:58.467Z,20.40
2018-09-16T02:05:58.446Z,18.10
2018-09-16T02:06:58.433Z,20.10
2018-09-16T02:07:58.410Z,18.80
2018-09-16T02:08:58.390Z,20.40
2018-09-16T02:09:58.374Z,20.00
2018-09-16T02:10:58.353Z,24.70
2018-09-16T02:11:58.335Z,21.00
2018-09-16T02:12:58.332Z,19.80
2018-09-16T02:13:58.303Z,20.60
2018-09-16T02:14:58.282Z,21.30
2018-09-16T02:15:58.273Z,22.30
2018-09-16T02:16:58.245Z,21.20
2018-09-16T02:17:58.229Z,22.00
2018-09-16T02:18:58.209Z,20.60
2018-09-16T02:19:58.192Z,19.80
2018-09-16T02:20:58.172Z,24.20
2018-09-16T02:21:58.153Z,23.30
2018-09-16T02:22:58.144Z,21.70
2018-09-16T02:23:58.118Z,22.00
2018-09-16T02:24:58.103Z,25.40
2018-09-16T02:25:58.093Z,21.00
2018-09-16T02:26:58.066Z,20.80
2018-09-16T02:27:58.046Z,23.30
2018-09-16T02:28:58.040Z,24.10
2018-09-16T02:29:58.016Z,25.50
2018-09-16T02:30:57.992Z,21.60
2018-09-16T02:31:57.971Z,23.20
2018-09-16T02:32:57.958Z,20.00
2018-09-16T02:33:57.938Z,25.80
2018-09-16T02:34:57.925Z,24.80
2018-09-16T02:35:57.901Z,26.40
2018-09-16T02:36:57.885Z,20.70
2018-09-16T02:37:57.872Z,23.40
2018-09-16T02:38:57.849Z,21.70
2018-09-16T02:39:57.835Z,25.00
2018-09-16T02:40:57.811Z,25.00
2018-09-16T02:41:57.792Z,25.80
2018-09-16T02:42:57.772Z,21.60
2018-09-16T02:43:57.754Z,24.40
2018-09-16T02:44:57.736Z,28.40
2018-09-16T02:45:57.717Z,23.20
2018-09-16T02:46:57.700Z,21.20
2018-09-16T02:47:57.717Z,24.60
2018-09-16T02:48:57.664Z,28.70
2018-09-16T02:49:57.646Z,26.20
2018-09-16T02:50:57.627Z,21.20
2018-09-16T02:51:57.612Z,22.30
2018-09-16T02:52:57.598Z,21.80
2018-09-16T02:53:57.577Z,24.00
2018-09-16T02:54:57.552Z,19.50
2018-09-16T02:55:57.542Z,21.30
2018-09-16T02:56:57.528Z,21.60
2018-09-16T02:57:57.504Z,20.90
2018-09-16T02:58:57.479Z,24.00
2018-09-16T02:59:57.463Z,22.70
2018-09-16T03:00:57.444Z,22.30
2018-09-16T03:01:57.426Z,25.20
2018-09-16T03:02:57.409Z,24.30
2018-09-16T03:03:57.534Z,25.60
2018-09-16T03:04:57.376Z,23.70
2018-09-16T03:05:57.356Z,20.50
2018-09-16T03:06:57.340Z,23.40
2018-09-16T03:07:57.327Z,27.00
2018-09-16T03:08:57.297Z,28.40
2018-09-16T03:09:57.280Z,23.10
2018-09-16T03:10:57.258Z,23.20
2018-09-16T03:11:57.352Z,27.90
2018-09-16T03:12:57.232Z,23.50
2018-09-16T03:13:57.204Z,24.20
2018-09-16T03:14:57.202Z,22.20
2018-09-16T03:15:57.168Z,22.70
2018-09-16T03:16:57.158Z,19.90
2018-09-16T03:17:57.140Z,21.20
2018-09-16T03:18:57.176Z,23.30
2018-09-16T03:19:57.096Z,23.40
2018-09-16T03:20:57.075Z,24.30
2018-09-16T03:21:57.057Z,24.60
2018-09-16T03:22:57.039Z,25.50
2018-09-16T03:23:57.021Z,22.70
2018-09-16T03:24:57.009Z,22.40
2018-09-16T03:25:56.992Z,21.50
2018-09-16T03:26:56.966Z,21.40
2018-09-16T03:27:56.947Z,20.70
2018-09-16T03:28:56.934Z,21.80
2018-09-16T03:29:56.913Z,21.30
2018-09-16T03:30:56.892Z,20.00
2018-09-16T03:31:56.878Z,24.20
2018-09-16T03:32:56.857Z,21.50
2018-09-16T03:33:57.003Z,22.10
2018-09-16T03:34:56.820Z,19.90
2018-09-16T03:35:56.799Z,23.00
2018-09-16T03:36:56.800Z,22.00
2018-09-16T03:37:56.764Z,23.10
2018-09-16T03:38:56.745Z,19.70
2018-09-16T03:39:56.726Z,21.10
2018-09-16T03:40:56.720Z,22.70
2018-09-16T03:41:56.694Z,21.40
2018-09-16T03:42:56.671Z,23.30
2018-09-16T03:43:56.662Z,23.30
2018-09-16T03:44:56.637Z,24.30
2018-09-16T03:45:56.619Z,21.40
2018-09-16T03:46:56.743Z,22.30
2018-09-16T03:47:56.580Z,20.40
2018-09-16T03:48:56.559Z,18.60
2018-09-16T03:49:56.561Z,23.60
2018-09-16T03:50:56.635Z,21.00
2018-09-16T03:51:56.504Z,22.80
2018-09-16T03:52:56.515Z,20.60
2018-09-16T03:53:56.468Z,24.00
2018-09-16T03:54:56.448Z,23.80
2018-09-16T03:55:56.438Z,24.60
2018-09-16T03:56:56.412Z,23.40
2018-09-16T03:57:56.396Z,23.10
2018-09-16T03:58:56.376Z,22.40
2018-09-16T03:59:56.355Z,25.90
2018-09-16T04:00:56.337Z,22.10
2018-09-16T04:01:56.323Z,24.50
2018-09-16T04:02:56.299Z,21.60
2018-09-16T04:03:56.296Z,19.90
2018-09-16T04:04:56.265Z,19.60
2018-09-16T04:05:56.245Z,23.60
2018-09-16T04:06:56.376Z,20.80
2018-09-16T04:07:56.210Z,23.20
2018-09-16T04:08:56.196Z,22.10
2018-09-16T04:09:56.221Z,19.80
2018-09-16T04:10:56.158Z,23.70
2018-09-16T04:11:56.139Z,18.90
2018-09-16T04:12:56.116Z,25.70
2018-09-16T04:13:56.219Z,22.50
2018-09-16T04:14:56.075Z,19.70
2018-09-16T04:15:56.060Z,21.90
2018-09-16T04:16:56.037Z,23.80
2018-09-16T04:17:56.019Z,23.90
2018-09-16T04:18:56.000Z,24.30
2018-09-16T04:19:55.986Z,22.50
2018-09-16T04:20:55.980Z,26.60
2018-09-16T04:21:55.957Z,23.10
2018-09-16T04:22:55.933Z,23.70
2018-09-16T04:23:55.912Z,25.10
2018-09-16T04:24:55.888Z,23.50
2018-09-16T04:25:55.907Z,22.60
2018-09-16T04:26:55.850Z,23.70
2018-09-16T04:27:55.834Z,19.80
2018-09-16T04:28:55.813Z,21.00
2018-09-16T04:29:55.797Z,24.60
2018-09-16T04:30:55.783Z,21.10
2018-09-16T04:31:55.770Z,21.30
2018-09-16T04:32:55.742Z,22.40
2018-09-16T04:33:55.719Z,23.10
2018-09-16T04:34:55.701Z,30.10
2018-09-16T04:35:55.681Z,21.50
2018-09-16T04:36:55.662Z,22.90
2018-09-16T04:37:55.649Z,20.00
2018-09-16T04:38:55.624Z,20.80
2018-09-16T04:39:55.658Z,27.20
2018-09-16T04:40:55.585Z,20.50
2018-09-16T04:41:55.572Z,24.50
2018-09-16T04:42:55.548Z,19.50
2018-09-16T04:43:55.532Z,27.10
2018-09-16T04:44:55.564Z,23.60
2018-09-16T04:45:55.494Z,21.00
2018-09-16T04:46:55.474Z,22.50
2018-09-16T04:47:55.454Z,22.40
2018-09-16T04:48:55.441Z,20.00
2018-09-16T04:50:55.800Z,24.30
2018-09-16T04:52:55.360Z,23.50
2018-09-16T04:53:55.341Z,20.60
2018-09-16T04:54:55.320Z,22.60
2018-09-16T04:55:55.385Z,24.30
2018-09-16T04:56:56.292Z,23.80
2018-09-16T04:59:55.231Z,25.00
2018-09-16T05:00:58.245Z,25.70
2018-09-16T05:01:56.211Z,26.30
2018-09-16T05:02:56.183Z,21.00
2018-09-16T05:03:55.150Z,20.90
2018-09-16T05:05:55.114Z,26.20
2018-09-16T05:06:55.094Z,21.90
2018-09-16T05:08:55.260Z,22.70
2018-09-16T05:09:55.036Z,21.20
2018-09-16T05:10:55.016Z,21.80
2018-09-16T05:11:54.998Z,23.30
2018-09-16T05:12:55.185Z,22.40
2018-09-16T05:13:54.960Z,24.50
2018-09-16T05:14:54.940Z,24.10
2018-09-16T05:15:54.926Z,27.80
2018-09-16T05:16:57.910Z,21.80
2018-09-16T05:18:54.862Z,21.10
2018-09-16T05:20:54.846Z,22.90
2018-09-16T05:22:54.794Z,25.00
2018-09-16T05:23:55.784Z,21.20
2018-09-16T05:25:54.732Z,23.10
2018-09-16T05:26:54.715Z,25.30
2018-09-16T05:27:54.695Z,23.90
2018-09-16T05:28:54.717Z,25.50
2018-09-16T05:29:54.661Z,21.00
2018-09-16T05:30:57.640Z,25.80
2018-09-16T05:31:55.749Z,20.00
2018-09-16T05:32:54.602Z,25.50
2018-09-16T05:33:54.584Z,22.00
2018-09-16T05:34:54.567Z,23.00
2018-09-16T05:36:54.525Z,25.10
2018-09-16T05:37:55.517Z,20.80
2018-09-16T05:39:54.471Z,23.30
2018-09-16T05:40:54.454Z,23.80
2018-09-16T05:41:54.431Z,22.90
2018-09-16T05:42:54.412Z,22.00
2018-09-16T05:43:54.399Z,20.60
2018-09-16T05:44:54.377Z,21.90
2018-09-16T05:45:54.355Z,23.90
2018-09-16T05:46:54.336Z,23.30
2018-09-16T05:47:54.322Z,21.00
2018-09-16T05:48:54.303Z,21.20
2018-09-16T05:49:54.286Z,20.80
2018-09-16T05:50:54.265Z,21.60
2018-09-16T05:51:54.251Z,25.10
2018-09-16T05:52:54.251Z,22.90
2018-09-16T05:53:54.265Z,22.00
2018-09-16T05:54:54.186Z,22.00
2018-09-16T05:55:54.179Z,18.80
2018-09-16T05:56:54.150Z,21.70
2018-09-16T05:57:54.131Z,20.70
2018-09-16T05:58:54.116Z,21.40
2018-09-16T05:59:54.093Z,20.90
2018-09-16T06:00:54.074Z,21.50
2018-09-16T06:01:54.056Z,21.70
2018-09-16T06:02:54.036Z,20.30
2018-09-16T06:03:54.026Z,22.10
2018-09-16T06:04:54.034Z,22.40
2018-09-16T06:05:53.988Z,21.70
2018-09-16T06:06:54.006Z,20.20
2018-09-16T06:07:53.942Z,22.60
2018-09-16T06:08:53.924Z,20.10
2018-09-16T06:09:53.905Z,21.70
2018-09-16T06:10:53.943Z,25.60
2018-09-16T06:11:53.868Z,25.10
2018-09-16T06:12:53.854Z,23.80
2018-09-16T06:13:53.829Z,20.20
2018-09-16T06:14:53.810Z,22.80
2018-09-16T06:15:53.795Z,23.40
2018-09-16T06:16:53.773Z,24.00
2018-09-16T06:17:53.754Z,23.20
2018-09-16T06:18:53.734Z,23.80
2018-09-16T06:19:53.715Z,23.30
2018-09-16T06:20:53.700Z,21.80
2018-09-16T06:21:53.687Z,22.30
2018-09-16T06:22:53.770Z,23.20
2018-09-16T06:23:53.642Z,21.70
2018-09-16T06:24:53.622Z,21.80
2018-09-16T06:25:53.604Z,20.30
2018-09-16T06:26:53.590Z,24.70
2018-09-16T06:27:53.569Z,20.50
2018-09-16T06:28:53.549Z,19.80
2018-09-16T06:29:53.533Z,21.60
2018-09-16T06:30:53.513Z,25.60
2018-09-16T06:31:53.494Z,20.70
2018-09-16T06:32:53.479Z,22.10
2018-09-16T06:33:53.460Z,22.10
2018-09-16T06:34:53.442Z,21.30
2018-09-16T06:35:53.414Z,19.50
2018-09-16T06:36:53.398Z,23.40
2018-09-16T06:37:53.377Z,22.20
2018-09-16T06:38:53.359Z,21.50
2018-09-16T06:39:53.401Z,21.40
2018-09-16T06:40:53.326Z,21.90
2018-09-16T06:41:53.308Z,21.30
2018-09-16T06:42:53.295Z,20.10
2018-09-16T06:43:53.267Z,21.00
2018-09-16T06:44:53.246Z,23.50
2018-09-16T06:45:53.298Z,21.10
2018-09-16T06:46:53.209Z,22.30
2018-09-16T06:47:53.190Z,19.40
2018-09-16T06:48:53.170Z,18.00
2018-09-16T06:49:53.162Z,21.20
2018-09-16T06:50:53.190Z,18.80
2018-09-16T06:51:53.112Z,20.50
2018-09-16T06:52:53.136Z,19.70
2018-09-16T06:53:53.074Z,18.80
2018-09-16T06:54:53.076Z,19.10
2018-09-16T06:55:53.036Z,22.20
2018-09-16T06:56:53.032Z,20.60
2018-09-16T06:57:52.997Z,20.40
2018-09-16T06:58:52.981Z,19.50
2018-09-16T06:59:52.961Z,18.10
2018-09-16T07:00:53.050Z,18.80
2018-09-16T07:01:52.930Z,20.00
2018-09-16T07:02:52.916Z,18.90
2018-09-16T07:03:52.892Z,19.60
2018-09-16T07:04:52.867Z,17.50
2018-09-16T07:05:52.862Z,17.60
2018-09-16T07:06:52.830Z,17.90
2018-09-16T07:07:52.812Z,19.60
2018-09-16T07:08:52.794Z,23.60
2018-09-16T07:09:52.886Z,17.20
2018-09-16T07:10:52.755Z,17.60
2018-09-16T07:11:52.741Z,17.10
2018-09-16T07:12:52.765Z,17.00
2018-09-16T07:13:52.700Z,19.80
2018-09-16T07:14:52.683Z,16.30
2018-09-16T07:15:52.665Z,19.30
2018-09-16T07:16:52.646Z,17.40
2018-09-16T07:17:52.627Z,17.40
2018-09-16T07:18:52.608Z,18.00
2018-09-16T07:19:52.589Z,18.60
2018-09-16T07:20:52.571Z,16.60
2018-09-16T07:21:52.555Z,21.30
2018-09-16T07:22:52.541Z,17.30
2018-09-16T07:23:52.515Z,17.80
2018-09-16T07:24:52.498Z,20.20
2018-09-16T07:25:52.479Z,17.00
2018-09-16T07:26:52.573Z,19.60
2018-09-16T07:27:52.444Z,17.10
2018-09-16T07:28:52.476Z,18.10
2018-09-16T07:29:52.408Z,16.60
2018-09-16T07:30:52.391Z,18.80
2018-09-16T07:31:52.449Z,18.30
2018-09-16T07:32:52.351Z,22.00
2018-09-16T07:33:52.367Z,15.50
2018-09-16T07:34:52.313Z,17.30
2018-09-16T07:35:52.297Z,14.90
2018-09-16T07:36:52.287Z,14.90
2018-09-16T07:37:52.266Z,16.10
2018-09-16T07:38:52.242Z,17.90
2018-09-16T07:39:52.223Z,13.80
2018-09-16T07:40:52.205Z,14.60
2018-09-16T07:41:52.186Z,13.10
2018-09-16T07:42:52.184Z,15.00
2018-09-16T07:43:52.181Z,16.90
2018-09-16T07:44:52.132Z,15.90
2018-09-16T07:45:52.119Z,14.20
2018-09-16T07:46:52.097Z,16.30
2018-09-16T07:47:52.081Z,13.10
2018-09-16T07:48:52.061Z,11.70
2018-09-16T07:49:52.046Z,13.80
2018-09-16T07:50:52.025Z,13.40
2018-09-16T07:51:52.017Z,13.30
2018-09-16T07:52:52.033Z,15.50
2018-09-16T07:53:51.976Z,16.70
2018-09-16T07:54:51.958Z,14.30
2018-09-16T07:55:51.949Z,14.00
2018-09-16T07:56:51.921Z,13.60
2018-09-16T07:57:51.914Z,15.20
2018-09-16T07:58:51.897Z,12.70
2018-09-16T07:59:51.881Z,14.20
2018-09-16T08:00:51.855Z,16.50
2018-09-16T08:01:51.891Z,12.80
2018-09-16T08:02:51.820Z,11.70
2018-09-16T08:03:51.804Z,11.70
2018-09-16T08:04:51.781Z,15.90
2018-09-16T08:05:51.763Z,12.20
2018-09-16T08:06:51.747Z,15.70
2018-09-16T08:07:51.731Z,14.90
2018-09-16T08:08:51.719Z,12.50
2018-09-16T08:09:51.698Z,13.50
2018-09-16T08:10:51.684Z,12.60
2018-09-16T08:11:51.677Z,12.50
2018-09-16T08:12:51.646Z,13.70
2018-09-16T08:13:51.743Z,14.50
2018-09-16T08:14:51.620Z,14.10
2018-09-16T08:15:51.599Z,15.00
2018-09-16T08:16:51.596Z,12.70
2018-09-16T08:17:51.721Z,13.00
2018-09-16T08:18:51.560Z,12.00
2018-09-16T08:19:51.529Z,12.30
2018-09-16T08:20:51.585Z,16.80
2018-09-16T08:21:51.496Z,13.90
2018-09-16T08:22:51.478Z,14.90
2018-09-16T08:23:51.464Z,11.70
2018-09-16T08:24:51.448Z,14.40
2018-09-16T08:25:51.449Z,12.70
2018-09-16T08:26:51.428Z,12.10
2018-09-16T08:27:51.400Z,13.00
2018-09-16T08:28:51.404Z,18.00
2018-09-16T08:29:51.373Z,12.80
2018-09-16T08:30:51.348Z,11.30
2018-09-16T08:31:51.336Z,14.60
2018-09-16T08:32:51.320Z,12.10
2018-09-16T08:33:51.299Z,13.10
2018-09-16T08:34:51.287Z,12.10
2018-09-16T08:35:51.274Z,11.70
2018-09-16T08:36:51.254Z,10.90
2018-09-16T08:37:51.272Z,12.00
2018-09-16T08:38:51.221Z,11.90
2018-09-16T08:39:51.205Z,10.90
2018-09-16T08:40:51.195Z,15.60
2018-09-16T08:41:51.176Z,15.00
2018-09-16T08:42:51.159Z,11.20
2018-09-16T08:43:51.146Z,12.10
2018-09-16T08:44:51.131Z,8.90
2018-09-16T08:45:51.121Z,13.80
2018-09-16T08:46:51.102Z,11.60
2018-09-16T08:47:51.236Z,11.90
2018-09-16T08:48:51.071Z,12.70
2018-09-16T08:49:51.064Z,11.70
2018-09-16T08:50:51.042Z,9.70
2018-09-16T08:51:51.028Z,11.30
2018-09-16T08:52:51.010Z,11.50
2018-09-16T08:53:50.994Z,9.70
2018-09-16T08:54:50.992Z,10.50
2018-09-16T08:55:50.967Z,12.00
2018-09-16T08:56:50.952Z,9.40
2018-09-16T08:57:50.935Z,10.40
2018-09-16T08:58:50.923Z,9.10
2018-09-16T08:59:50.908Z,9.10
2018-09-16T09:00:50.902Z,14.60
2018-09-16T09:01:50.881Z,8.50
2018-09-16T09:02:50.863Z,9.20
2018-09-16T09:03:50.850Z,10.80
2018-09-16T09:04:50.844Z,8.60
2018-09-16T09:05:50.829Z,9.80
2018-09-16T09:06:50.807Z,9.10
2018-09-16T09:07:50.804Z,12.30
2018-09-16T09:08:50.781Z,9.40
2018-09-16T09:09:50.771Z,11.80
2018-09-16T09:10:50.761Z,7.70
2018-09-16T09:11:50.742Z,9.90
2018-09-16T09:12:50.726Z,8.80
2018-09-16T09:14:34.345Z,8.80
2018-09-16T09:15:34.324Z,9.90
2018-09-16T09:16:34.318Z,7.80
2018-09-16T09:17:34.297Z,10.40
2018-09-16T09:18:34.283Z,7.30
2018-09-16T09:19:34.305Z,10.20
2018-09-16T09:20:34.268Z,10.70
2018-09-16T09:21:34.260Z,9.00
2018-09-16T09:22:34.230Z,15.20
2018-09-16T09:23:34.231Z,9.20
2018-09-16T09:24:34.210Z,9.80
2018-09-16T09:25:34.198Z,16.00
2018-09-16T09:26:34.181Z,9.50
2018-09-16T09:27:34.165Z,9.80
2018-09-16T09:28:34.157Z,8.80
2018-09-16T09:29:34.288Z,8.30
2018-09-16T09:30:34.123Z,8.70
2018-09-16T09:31:34.119Z,9.70
2018-09-16T09:32:34.100Z,10.20
2018-09-16T09:33:34.096Z,7.40
2018-09-16T09:34:34.073Z,9.70
2018-09-16T09:35:34.083Z,8.70
2018-09-16T09:36:34.053Z,6.20
2018-09-16T09:37:34.036Z,6.50
2018-09-16T09:38:34.026Z,15.20
2018-09-16T09:39:34.012Z,9.60
2018-09-16T09:40:34.002Z,9.80
2018-09-16T09:41:34.000Z,7.10
2018-09-16T09:42:34.024Z,10.10
2018-09-16T09:43:33.971Z,10.00
2018-09-16T09:44:33.969Z,7.50
2018-09-16T09:46:33.940Z,6.90
2018-09-16T09:47:33.945Z,9.40
2018-09-16T09:48:33.922Z,12.10
2018-09-16T09:49:34.334Z,7.90
2018-09-16T09:51:33.896Z,7.40
2018-09-16T09:52:33.888Z,8.00
2018-09-16T09:53:33.938Z,9.10
2018-09-16T09:54:33.872Z,8.30
2018-09-16T09:55:33.878Z,5.80
2018-09-16T09:56:33.855Z,5.70
2018-09-16T09:57:33.855Z,6.60
2018-09-16T09:58:33.847Z,6.70
2018-09-16T09:59:33.861Z,6.90
2018-09-16T10:00:33.826Z,6.70
2018-09-16T10:01:33.822Z,6.80
2018-09-16T10:02:33.827Z,7.60
2018-09-16T10:03:33.810Z,5.60
2018-09-16T10:04:33.801Z,7.90
2018-09-16T10:05:33.798Z,7.50
2018-09-16T10:06:33.878Z,7.60
2018-09-16T10:07:33.787Z,5.30
2018-09-16T10:08:33.782Z,9.60
2018-09-16T10:09:33.786Z,9.50
2018-09-16T10:10:37.620Z,8.00
2018-09-16T10:11:33.764Z,6.20
2018-09-16T10:12:33.764Z,7.20
2018-09-16T10:13:33.754Z,6.30
2018-09-16T10:14:33.859Z,7.60
2018-09-16T10:15:33.748Z,6.10
2018-09-16T10:16:33.746Z,6.60
2018-09-16T10:17:33.736Z,5.70
2018-09-16T10:18:33.735Z,7.70
2018-09-16T10:19:33.744Z,8.80
2018-09-16T10:20:33.729Z,7.60
2018-09-16T10:21:33.717Z,8.60
2018-09-16T10:22:33.716Z,8.10
2018-09-16T10:23:33.716Z,7.00
2018-09-16T10:24:33.703Z,7.40
2018-09-16T10:25:33.699Z,6.00
2018-09-16T10:26:33.702Z,10.10
2018-09-16T10:27:33.702Z,9.60
2018-09-16T10:28:33.704Z,6.00
2018-09-16T10:29:33.682Z,9.00
2018-09-16T10:30:33.694Z,8.60
2018-09-16T10:31:33.682Z,5.20
2018-09-16T10:32:33.694Z,6.10
2018-09-16T10:33:33.668Z,10.00
2018-09-16T10:34:33.670Z,4.60
2018-09-16T10:35:33.749Z,9.30
2018-09-16T10:36:33.664Z,5.60
2018-09-16T10:37:33.654Z,7.30
2018-09-16T10:38:33.787Z,6.40
2018-09-16T10:39:33.651Z,7.60
2018-09-16T10:40:33.640Z,5.70
2018-09-16T10:41:33.638Z,5.50
2018-09-16T10:42:33.636Z,5.40
2018-09-16T10:43:33.636Z,8.30
2018-09-16T10:44:33.626Z,4.40
2018-09-16T10:45:33.622Z,7.30
2018-09-16T10:46:33.616Z,6.30
2018-09-16T10:47:33.619Z,9.30
2018-09-16T10:48:33.607Z,5.80
2018-09-16T10:49:33.605Z,7.80
2018-09-16T10:50:33.602Z,7.80
2018-09-16T10:51:33.610Z,5.20
2018-09-16T10:52:33.599Z,4.40
2018-09-16T10:53:33.599Z,4.60
2018-09-16T10:54:33.616Z,5.30
2018-09-16T10:55:33.576Z,6.80
2018-09-16T10:56:33.571Z,6.50
2018-09-16T10:57:33.574Z,5.10
2018-09-16T10:58:33.566Z,8.10
2018-09-16T10:59:33.607Z,9.80
2018-09-16T11:00:33.561Z,7.70
2018-09-16T11:01:33.547Z,7.00
2018-09-16T11:02:33.542Z,11.10
2018-09-16T11:03:33.536Z,5.40
2018-09-16T11:04:33.532Z,7.50
2018-09-16T11:05:33.531Z,6.80
2018-09-16T11:06:33.533Z,5.40
2018-09-16T11:07:33.512Z,5.40
2018-09-16T11:08:33.509Z,6.50
2018-09-16T11:09:33.506Z,6.80
2018-09-16T11:10:33.495Z,6.20
2018-09-16T11:11:33.490Z,6.20
2018-09-16T11:12:33.485Z,9.70
2018-09-16T11:13:33.490Z,7.40
2018-09-16T11:14:33.478Z,6.40
2018-09-16T11:15:33.478Z,5.20
2018-09-16T11:16:33.463Z,5.50
2018-09-16T11:17:33.460Z,5.50
2018-09-16T11:18:33.453Z,6.40
2018-09-16T11:19:33.448Z,4.60
2018-09-16T11:20:33.445Z,8.70
2018-09-16T11:21:33.438Z,5.50
2018-09-16T11:22:33.429Z,7.30
2018-09-16T11:23:33.431Z,8.70
2018-09-16T11:24:33.419Z,4.00
2018-09-16T11:25:33.570Z,5.00
2018-09-16T11:26:33.409Z,4.60
2018-09-16T11:27:33.402Z,7.20
2018-09-16T11:28:33.405Z,4.90
2018-09-16T11:29:33.396Z,6.20
2018-09-16T11:30:33.393Z,5.30
2018-09-16T11:31:33.380Z,5.80
2018-09-16T11:32:33.375Z,4.70
2018-09-16T11:33:33.411Z,7.00
2018-09-16T11:34:33.363Z,7.10
2018-09-16T11:35:33.417Z,6.30
2018-09-16T11:36:33.357Z,4.90
2018-09-16T11:37:33.347Z,4.60
2018-09-16T11:38:33.346Z,5.60
2018-09-16T11:39:33.341Z,4.30
2018-09-16T11:40:33.333Z,3.80
2018-09-16T11:41:33.327Z,5.10
2018-09-16T11:42:33.322Z,5.80
2018-09-16T11:43:33.312Z,5.70
2018-09-16T11:44:33.307Z,5.90
2018-09-16T11:45:33.301Z,7.20
2018-09-16T11:46:33.296Z,7.30
2018-09-16T11:47:33.287Z,5.50
2018-09-16T11:49:33.328Z,5.90
2018-09-16T11:50:33.271Z,6.20
2018-09-16T11:51:33.301Z,4.50
2018-09-16T11:52:33.255Z,6.50
2018-09-16T11:53:33.249Z,4.60
2018-09-16T11:54:33.239Z,5.60
2018-09-16T11:55:33.231Z,5.40
2018-09-16T11:56:33.236Z,8.70
2018-09-16T11:57:33.216Z,4.40
2018-09-16T11:58:33.209Z,7.80
2018-09-16T11:59:33.451Z,8.70
2018-09-16T12:00:33.199Z,5.00
2018-09-16T12:01:33.188Z,5.60
2018-09-16T12:02:33.200Z,4.10
2018-09-16T12:03:33.168Z,7.00
2018-09-16T12:04:33.160Z,5.10
2018-09-16T12:05:33.160Z,5.40
2018-09-16T12:06:33.151Z,5.30
2018-09-16T12:08:27.281Z,7.10
2018-09-16T12:10:43.339Z,9.60
2018-09-16T12:11:43.324Z,7.10
2018-09-16T12:12:43.325Z,6.00
2018-09-16T12:13:43.306Z,7.80
2018-09-16T12:14:43.305Z,6.10
2018-09-16T12:15:43.910Z,6.10
2018-09-16T12:16:43.277Z,7.50
2018-09-16T12:17:43.268Z,4.80
2018-09-16T12:18:43.262Z,5.30
2018-09-16T12:19:43.248Z,5.00
2018-09-16T12:20:43.242Z,5.20
2018-09-16T12:21:43.238Z,4.20
2018-09-16T12:22:43.221Z,6.20
2018-09-16T12:23:43.213Z,9.80
2018-09-16T12:24:43.804Z,5.80
2018-09-16T12:25:43.245Z,6.60
2018-09-16T12:26:43.180Z,6.90
2018-09-16T12:27:43.170Z,4.50
2018-09-16T12:28:43.155Z,6.10
2018-09-16T12:29:43.147Z,5.20
2018-09-16T12:30:43.224Z,6.40
2018-09-16T12:31:43.124Z,6.70
2018-09-16T12:32:43.121Z,6.90
2018-09-16T12:33:43.124Z,6.40
2018-09-16T12:34:43.104Z,7.40
2018-09-16T12:35:43.090Z,4.90
2018-09-16T12:36:43.079Z,5.00
2018-09-16T12:37:43.066Z,5.40
2018-09-16T12:38:43.054Z,5.50
2018-09-16T12:39:43.039Z,10.90
2018-09-16T12:40:43.030Z,10.20
2018-09-16T12:41:43.026Z,9.90
2018-09-16T12:42:43.013Z,7.20
2018-09-16T12:43:42.997Z,14.00
2018-09-16T12:44:42.989Z,4.90
2018-09-16T12:45:42.974Z,6.40
2018-09-16T12:46:42.971Z,5.60
2018-09-16T12:47:42.969Z,8.50
2018-09-16T12:48:42.953Z,7.20
2018-09-16T12:49:42.932Z,6.50
2018-09-16T12:50:42.921Z,4.50
2018-09-16T12:51:42.914Z,5.30
2018-09-16T12:52:42.906Z,7.30
2018-09-16T12:53:42.886Z,4.70
2018-09-16T12:54:42.884Z,3.50
2018-09-16T12:55:42.871Z,4.40
2018-09-16T12:56:42.865Z,6.30
2018-09-16T12:57:42.852Z,4.80
2018-09-16T12:58:42.833Z,3.60
2018-09-16T12:59:42.830Z,5.90
2018-09-16T13:00:42.826Z,6.40
2018-09-16T13:01:42.809Z,5.00
2018-09-16T13:02:42.789Z,4.80
2018-09-16T13:03:42.778Z,4.40
2018-09-16T13:04:42.768Z,5.20
2018-09-16T13:05:42.755Z,5.40
2018-09-16T13:06:42.744Z,6.30
2018-09-16T13:07:42.737Z,5.00
2018-09-16T13:08:42.730Z,5.40
2018-09-16T13:09:42.713Z,4.10
2018-09-16T13:10:42.709Z,5.30
2018-09-16T13:11:42.693Z,6.20
2018-09-16T13:12:42.678Z,4.10
2018-09-16T13:13:42.799Z,6.20
2018-09-16T13:14:42.664Z,6.10
2018-09-16T13:15:42.647Z,6.50
2018-09-16T13:16:42.633Z,5.20
2018-09-16T13:17:42.639Z,6.30